createdAt,value
2018-02-23T00:00:34.345Z,99.90
2018-02-23T00:03:01.556Z,99.90
2018-02-23T00:05:29.024Z,99.90
2018-02-23T00:07:56.142Z,99.90
2018-02-23T00:12:56.458Z,99.90
2018-02-23T00:15:23.588Z,99.90
2018-02-23T00:17:50.351Z,99.90
2018-02-23T00:20:18.058Z,99.90
2018-02-23T00:22:45.625Z,99.90
2018-02-23T00:25:14.244Z,99.90
2018-02-23T00:27:41.184Z,99.90
2018-02-23T00:30:09.419Z,99.90
2018-02-23T00:32:36.588Z,99.90
2018-02-23T00:35:04.935Z,99.90
2018-02-23T00:37:33.083Z,99.90
2018-02-23T00:39:59.941Z,99.90
2018-02-23T00:42:27.863Z,99.90
2018-02-23T00:44:55.953Z,99.90
2018-02-23T00:47:23.428Z,99.90
2018-02-23T00:49:50.649Z,99.90
2018-02-23T00:52:17.756Z,99.90
2018-02-23T00:54:44.358Z,99.90
2018-02-23T00:57:11.160Z,99.90
2018-02-23T00:59:37.877Z,99.90
2018-02-23T01:02:04.624Z,99.90
2018-02-23T01:04:31.427Z,99.90
2018-02-23T01:06:58.593Z,99.90
2018-02-23T01:09:25.771Z,99.90
2018-02-23T01:11:53.367Z,99.90
2018-02-23T01:14:20.257Z,99.90
2018-02-23T01:16:46.967Z,99.90
2018-02-23T01:19:14.343Z,99.90
2018-02-23T01:21:40.797Z,99.90
2018-02-23T01:24:08.583Z,99.90
2018-02-23T01:26:34.965Z,99.90
2018-02-23T01:29:02.637Z,99.90
2018-02-23T01:31:29.607Z,99.90
2018-02-23T01:33:56.748Z,99.90
2018-02-23T01:36:26.912Z,99.90
2018-02-23T01:38:54.538Z,99.90
2018-02-23T01:41:21.421Z,99.90
2018-02-23T01:43:49.088Z,99.90
2018-02-23T01:46:15.946Z,99.90
2018-02-23T01:48:43.597Z,99.90
2018-02-23T01:51:11.145Z,99.90
2018-02-23T01:53:38.544Z,99.90
2018-02-23T01:56:05.708Z,99.90
2018-02-23T01:58:32.972Z,99.90
2018-02-23T02:00:59.768Z,99.90
2018-02-23T02:03:27.090Z,99.90
2018-02-23T02:05:54.622Z,99.90
2018-02-23T02:08:22.772Z,99.90
2018-02-23T02:10:49.503Z,99.90
2018-02-23T02:13:15.873Z,99.90
2018-02-23T02:15:42.585Z,99.90
2018-02-23T02:18:10.407Z,99.90
2018-02-23T02:20:52.460Z,99.90
2018-02-23T02:23:19.584Z,99.90
2018-02-23T02:25:46.329Z,99.90
2018-02-23T02:28:13.814Z,99.90
2018-02-23T02:30:40.347Z,99.90
2018-02-23T02:33:08.241Z,99.90
2018-02-23T02:35:36.829Z,99.90
2018-02-23T02:38:05.025Z,99.90
2018-02-23T02:40:33.080Z,99.90
2018-02-23T02:43:00.717Z,99.90
2018-02-23T02:45:27.197Z,99.90
2018-02-23T02:47:54.725Z,99.90
2018-02-23T02:50:22.960Z,99.90
2018-02-23T02:52:50.021Z,99.90
2018-02-23T02:55:17.127Z,99.90
2018-02-23T02:57:44.246Z,99.90
2018-02-23T03:00:11.419Z,99.90
2018-02-23T03:02:38.365Z,99.90
2018-02-23T03:05:05.502Z,99.90
2018-02-23T03:07:32.694Z,99.90
2018-02-23T03:10:00.160Z,99.90
2018-02-23T03:12:26.562Z,99.90
2018-02-23T03:14:53.432Z,99.90
2018-02-23T03:17:20.192Z,99.90
2018-02-23T03:19:47.380Z,99.90
2018-02-23T03:22:15.015Z,99.90
2018-02-23T03:24:41.794Z,99.90
2018-02-23T03:27:08.524Z,99.90
2018-02-23T03:29:35.690Z,99.90
2018-02-23T03:32:02.496Z,99.90
2018-02-23T03:36:57.099Z,99.90
2018-02-23T03:39:23.936Z,99.90
2018-02-23T03:41:51.087Z,99.90
2018-02-23T03:44:18.326Z,99.90
2018-02-23T03:46:45.114Z,99.90
2018-02-23T03:49:12.746Z,99.90
2018-02-23T03:51:40.011Z,99.90
2018-02-23T03:54:06.343Z,99.90
2018-02-23T03:56:33.115Z,99.90
2018-02-23T03:58:59.937Z,99.90
2018-02-23T04:01:26.707Z,99.90
2018-02-23T04:03:54.197Z,99.90
2018-02-23T04:06:20.648Z,99.90
2018-02-23T04:08:47.386Z,99.90
2018-02-23T04:11:14.957Z,99.90
2018-02-23T04:13:41.706Z,99.90
2018-02-23T04:16:08.544Z,99.90
2018-02-23T04:18:35.654Z,99.90
2018-02-23T04:21:02.844Z,99.90
2018-02-23T04:23:29.678Z,99.90
2018-02-23T04:25:56.810Z,99.90
2018-02-23T04:28:24.015Z,99.90
2018-02-23T04:30:51.845Z,99.90
2018-02-23T04:33:18.662Z,99.90
2018-02-23T04:35:46.758Z,99.90
2018-02-23T04:38:13.172Z,99.90
2018-02-23T04:40:40.313Z,99.90
2018-02-23T04:43:07.562Z,99.90
2018-02-23T04:48:31.622Z,99.90
2018-02-23T04:50:58.456Z,99.90
2018-02-23T04:53:25.186Z,99.90
2018-02-23T04:55:51.915Z,99.90
2018-02-23T04:58:25.029Z,99.90
2018-02-23T05:00:52.216Z,99.90
2018-02-23T05:03:18.644Z,99.90
2018-02-23T05:05:45.487Z,99.90
2018-02-23T05:08:12.329Z,99.90
2018-02-23T05:10:39.430Z,99.90
2018-02-23T05:13:06.170Z,99.90
2018-02-23T05:15:32.920Z,99.90
2018-02-23T05:18:00.768Z,99.90
2018-02-23T05:20:27.496Z,99.90
2018-02-23T05:22:53.897Z,99.90
2018-02-23T05:25:21.388Z,99.90
2018-02-23T05:27:48.500Z,99.90
2018-02-23T05:30:15.672Z,99.90
2018-02-23T05:32:42.867Z,99.90
2018-02-23T05:35:16.604Z,99.90
2018-02-23T05:37:43.712Z,99.90
2018-02-23T05:40:10.481Z,99.90
2018-02-23T05:45:05.512Z,99.90
2018-02-23T05:47:32.706Z,99.90
2018-02-23T05:49:59.853Z,99.90
2018-02-23T05:52:26.579Z,99.90
2018-02-23T05:54:54.107Z,99.90
2018-02-23T05:57:21.246Z,99.90
2018-02-23T05:59:47.584Z,99.90
2018-02-23T06:02:15.398Z,99.90
2018-02-23T06:04:42.381Z,99.90
2018-02-23T06:07:09.445Z,99.90
2018-02-23T06:09:36.926Z,99.90
2018-02-23T06:12:03.393Z,99.90
2018-02-23T06:14:30.117Z,99.90
2018-02-23T06:16:56.807Z,99.90
2018-02-23T06:19:29.795Z,99.90
2018-02-23T06:21:56.471Z,99.90
2018-02-23T06:24:23.214Z,99.90
2018-02-23T06:26:51.083Z,99.90
2018-02-23T06:29:17.792Z,99.90
2018-02-23T06:31:45.050Z,99.90
2018-02-23T06:34:12.289Z,99.90
2018-02-23T06:36:39.405Z,99.90
2018-02-23T06:39:07.239Z,99.90
2018-02-23T06:41:34.503Z,99.90
2018-02-23T06:44:01.600Z,99.90
2018-02-23T06:46:28.507Z,99.90
2018-02-23T06:48:56.067Z,99.90
2018-02-23T06:51:23.267Z,99.90
2018-02-23T06:53:50.112Z,99.90
2018-02-23T06:58:45.139Z,99.90
2018-02-23T07:01:13.226Z,99.90
2018-02-23T07:03:40.127Z,99.90
2018-02-23T07:06:07.601Z,99.90
2018-02-23T07:08:35.480Z,99.90
2018-02-23T07:11:03.103Z,99.90
2018-02-23T07:13:29.997Z,99.90
2018-02-23T07:20:52.663Z,99.90
2018-02-23T07:23:19.484Z,99.90
2018-02-23T07:25:46.633Z,99.90
2018-02-23T07:28:13.793Z,99.90
2018-02-23T07:30:40.557Z,99.90
2018-02-23T07:35:36.764Z,99.90
2018-02-23T07:38:04.508Z,99.90
2018-02-23T07:40:31.383Z,99.90
2018-02-23T07:42:57.753Z,99.90
2018-02-23T07:45:25.895Z,99.90
2018-02-23T07:47:52.630Z,99.90
2018-02-23T07:50:19.751Z,99.90
2018-02-23T07:52:46.107Z,99.90
2018-02-23T07:55:13.306Z,99.90
2018-02-23T07:57:40.367Z,99.90
2018-02-23T08:00:07.862Z,99.90
2018-02-23T08:02:34.272Z,99.90
2018-02-23T08:05:01.459Z,99.90
2018-02-23T08:07:28.565Z,99.90
2018-02-23T08:09:55.299Z,99.90
2018-02-23T08:12:21.965Z,99.90
2018-02-23T08:14:48.852Z,99.90
2018-02-23T08:17:17.338Z,99.90
2018-02-23T08:19:44.124Z,99.90
2018-02-23T08:24:38.978Z,99.90
2018-02-23T08:27:06.462Z,99.90
2018-02-23T08:29:32.832Z,99.90
2018-02-23T08:31:59.593Z,99.90
2018-02-23T08:34:26.306Z,99.90
2018-02-23T08:36:53.056Z,99.90
2018-02-23T08:39:20.516Z,99.90
2018-02-23T08:41:46.980Z,99.90
2018-02-23T08:44:14.132Z,99.90
2018-02-23T08:46:41.844Z,99.90
2018-02-23T08:51:37.116Z,99.90
2018-02-23T08:54:04.214Z,99.90
2018-02-23T08:56:31.458Z,99.90
2018-02-23T08:58:58.629Z,99.90
2018-02-23T09:01:25.669Z,99.90
2018-02-23T09:03:53.163Z,99.90
2018-02-23T09:06:20.589Z,99.90
2018-02-23T09:08:48.012Z,99.90
2018-02-23T09:11:15.484Z,99.90
2018-02-23T09:13:42.265Z,99.90
2018-02-23T09:16:09.371Z,99.90
2018-02-23T09:18:36.295Z,99.90
2018-02-23T09:21:03.734Z,99.90
2018-02-23T09:23:30.638Z,99.90
2018-02-23T09:28:25.955Z,99.90
2018-02-23T09:30:52.880Z,99.90
2018-02-23T09:33:20.328Z,99.90
2018-02-23T09:35:47.491Z,99.90
2018-02-23T09:38:13.911Z,99.90
2018-02-23T09:40:40.315Z,99.90
2018-02-23T09:43:07.068Z,99.90
2018-02-23T09:50:30.045Z,99.90
2018-02-23T09:52:56.474Z,99.90
2018-02-23T09:55:23.930Z,99.90
2018-02-23T09:57:50.456Z,99.90
2018-02-23T10:00:17.947Z,99.90
2018-02-23T10:02:44.341Z,99.90
2018-02-23T10:05:11.844Z,99.90
2018-02-23T10:07:38.234Z,99.90
2018-02-23T10:10:04.739Z,99.90
2018-02-23T10:12:31.548Z,99.90
2018-02-23T10:14:58.006Z,99.90
2018-02-23T10:17:24.798Z,99.90
2018-02-23T10:19:51.149Z,99.90
2018-02-23T10:22:18.456Z,99.90
2018-02-23T10:24:45.984Z,99.90
2018-02-23T10:27:13.087Z,99.90
2018-02-23T10:29:40.173Z,99.90
2018-02-23T10:32:07.330Z,99.90
2018-02-23T10:34:34.116Z,99.90
2018-02-23T10:37:00.650Z,99.90
2018-02-23T10:39:28.233Z,99.90
2018-02-23T10:41:54.971Z,99.90
2018-02-23T10:44:21.393Z,99.90
2018-02-23T10:49:16.832Z,99.90
2018-02-23T10:51:43.443Z,99.90
2018-02-23T10:54:10.369Z,99.90
2018-02-23T10:56:37.369Z,97.40
2018-02-23T10:59:03.836Z,92.30
2018-02-23T11:01:31.048Z,62.00
2018-02-23T11:03:58.430Z,60.10
2018-02-23T11:06:24.951Z,65.60
2018-02-23T11:08:52.065Z,48.60
2018-02-23T11:11:20.108Z,44.10
2018-02-23T11:13:46.568Z,55.30
2018-02-23T11:16:13.063Z,54.30
2018-02-23T11:18:40.582Z,49.70
2018-02-23T11:21:07.691Z,42.10
2018-02-23T11:23:34.480Z,46.30
2018-02-23T11:26:00.936Z,55.50
2018-02-23T11:30:55.822Z,39.70
2018-02-23T11:33:22.280Z,52.30
2018-02-23T11:38:17.669Z,38.00
2018-02-23T11:40:45.687Z,39.00
2018-02-23T11:43:13.542Z,37.60
2018-02-23T11:45:39.859Z,52.80
2018-02-23T11:48:06.333Z,48.80
2018-02-23T11:50:32.803Z,52.30
2018-02-23T11:52:59.211Z,50.50
2018-02-23T11:58:00.598Z,35.80
2018-02-23T12:02:58.550Z,51.30
2018-02-23T12:05:26.660Z,48.20
2018-02-23T12:10:22.176Z,51.20
2018-02-23T12:12:48.612Z,49.20
2018-02-23T12:15:15.370Z,47.00
2018-02-23T12:17:42.312Z,39.80
2018-02-23T12:22:37.260Z,47.70
2018-02-23T12:27:31.853Z,42.90
2018-02-23T12:32:26.459Z,43.50
2018-02-23T12:34:53.280Z,32.40
2018-02-23T12:37:20.428Z,30.80
2018-02-23T12:39:47.416Z,45.10
2018-02-23T12:42:15.320Z,30.40
2018-02-23T12:44:42.190Z,29.30
2018-02-23T12:47:10.224Z,29.10
2018-02-23T12:49:37.552Z,41.30
2018-02-23T12:52:05.308Z,31.60
2018-02-23T12:54:32.208Z,38.80
2018-02-23T12:56:59.561Z,31.10
2018-02-23T12:59:27.938Z,31.40
2018-02-23T13:04:33.367Z,47.10
2018-02-23T13:06:59.669Z,45.00
2018-02-23T13:09:26.812Z,47.30
2018-02-23T13:11:53.923Z,46.90
2018-02-23T13:14:20.671Z,31.80
2018-02-23T13:16:47.316Z,43.40
2018-02-23T13:19:13.719Z,43.20
2018-02-23T13:21:40.830Z,30.70
2018-02-23T13:24:07.228Z,46.10
2018-02-23T13:26:35.050Z,31.40
2018-02-23T13:29:02.540Z,32.10
2018-02-23T13:31:29.604Z,31.50
2018-02-23T13:33:55.934Z,45.20
2018-02-23T13:36:22.727Z,33.80
2018-02-23T13:38:50.751Z,34.10
2018-02-23T13:41:28.740Z,44.70
2018-02-23T13:46:23.451Z,38.40
2018-02-23T13:48:49.943Z,43.60
2018-02-23T13:51:16.537Z,44.70
2018-02-23T13:53:45.302Z,34.10
2018-02-23T13:58:41.454Z,37.20
2018-02-23T14:01:07.920Z,41.90
2018-02-23T14:03:34.316Z,43.50
2018-02-23T14:06:03.520Z,32.40
2018-02-23T14:08:30.342Z,32.30
2018-02-23T14:10:57.524Z,32.50
2018-02-23T14:13:24.429Z,32.10
2018-02-23T14:15:51.779Z,33.30
2018-02-23T14:18:18.284Z,46.50
2018-02-23T14:20:45.750Z,33.00
2018-02-23T14:23:12.514Z,44.70
2018-02-23T14:25:39.339Z,37.20
2018-02-23T14:28:06.662Z,35.20
2018-02-23T14:30:34.636Z,34.50
2018-02-23T14:33:02.050Z,33.20
2018-02-23T14:35:28.536Z,39.70
2018-02-23T14:37:55.489Z,42.30
2018-02-23T14:40:22.971Z,31.20
2018-02-23T14:42:49.384Z,41.70
2018-02-23T14:45:16.252Z,32.10
2018-02-23T14:47:43.121Z,30.80
2018-02-23T14:50:21.738Z,45.70
2018-02-23T14:52:49.397Z,33.10
2018-02-23T14:55:17.112Z,33.50
2018-02-23T14:57:43.803Z,45.70
2018-02-23T15:00:10.684Z,45.50
2018-02-23T15:02:38.192Z,33.30
2018-02-23T15:07:33.085Z,44.40
2018-02-23T15:09:59.744Z,40.50
2018-02-23T15:12:27.086Z,28.80
2018-02-23T15:14:54.066Z,29.50
2018-02-23T15:17:20.879Z,45.10
2018-02-23T15:19:48.393Z,31.10
2018-02-23T15:22:15.441Z,30.90
2018-02-23T15:24:42.460Z,35.90
2018-02-23T15:27:10.817Z,45.50
2018-02-23T15:29:37.568Z,32.30
2018-02-23T15:32:16.166Z,44.50
2018-02-23T15:37:17.281Z,45.80
2018-02-23T15:42:14.857Z,33.50
2018-02-23T15:44:45.879Z,34.20
2018-02-23T15:47:14.635Z,34.40
2018-02-23T15:49:56.685Z,34.90
2018-02-23T15:52:23.271Z,46.10
2018-02-23T15:57:19.768Z,33.80
2018-02-23T15:59:46.737Z,36.50
2018-02-23T16:04:43.662Z,35.70
2018-02-23T16:07:10.613Z,36.80
2018-02-23T16:09:38.228Z,35.70
2018-02-23T16:12:05.043Z,35.90
2018-02-23T16:14:33.067Z,38.10
2018-02-23T16:24:26.092Z,53.50
2018-02-23T16:26:53.081Z,63.50
2018-02-23T16:29:19.858Z,74.00
2018-02-23T16:31:47.411Z,83.80
2018-02-23T16:34:14.594Z,90.90
2018-02-23T16:39:10.470Z,99.90
2018-02-23T16:41:37.098Z,99.90
2018-02-23T16:44:03.920Z,99.90
2018-02-23T16:51:32.721Z,99.90
2018-02-23T16:53:59.101Z,99.90
2018-02-23T16:56:26.625Z,99.90
2018-02-23T16:58:53.864Z,99.90
2018-02-23T17:01:24.284Z,99.90
2018-02-23T17:03:51.610Z,99.90
2018-02-23T17:11:21.603Z,99.90
2018-02-23T17:13:50.074Z,99.90
2018-02-23T17:16:16.696Z,99.90
2018-02-23T17:18:46.970Z,99.90
2018-02-23T17:21:13.420Z,99.90
2018-02-23T17:23:40.220Z,99.90
2018-02-23T17:26:11.261Z,99.90
2018-02-23T17:28:38.966Z,99.90
2018-02-23T17:31:09.886Z,99.90
2018-02-23T17:36:05.198Z,99.90
2018-02-23T17:38:32.347Z,99.90
2018-02-23T17:41:00.701Z,99.90
2018-02-23T17:43:27.085Z,99.90
2018-02-23T17:45:55.506Z,99.90
2018-02-23T17:48:22.230Z,99.90
2018-02-23T17:50:48.654Z,99.90
2018-02-23T17:53:15.800Z,99.90
2018-02-23T17:55:42.072Z,99.90
2018-02-23T17:58:08.882Z,99.90
2018-02-23T18:00:36.093Z,99.90
2018-02-23T18:03:02.599Z,99.90
2018-02-23T18:05:29.583Z,99.90
2018-02-23T18:07:56.468Z,99.90
2018-02-23T18:10:22.904Z,99.90
2018-02-23T18:12:49.246Z,99.90
2018-02-23T18:15:15.682Z,99.90
2018-02-23T18:17:42.417Z,99.90
2018-02-23T18:20:10.296Z,99.90
2018-02-23T18:22:37.467Z,99.90
2018-02-23T18:25:05.093Z,99.90
2018-02-23T18:27:31.867Z,99.90
2018-02-23T18:29:58.638Z,99.90
2018-02-23T18:32:25.782Z,99.90
2018-02-23T18:34:52.960Z,99.90
2018-02-23T18:39:48.233Z,99.90
2018-02-23T18:42:15.610Z,99.90
2018-02-23T18:44:42.065Z,99.90
2018-02-23T18:47:09.381Z,99.90
2018-02-23T18:49:36.681Z,99.90
2018-02-23T18:52:03.393Z,99.90
2018-02-23T18:54:30.063Z,99.90
2018-02-23T18:59:26.116Z,99.90
2018-02-23T19:01:53.904Z,99.90
2018-02-23T19:04:21.875Z,99.90
2018-02-23T19:06:48.430Z,99.90
2018-02-23T19:09:15.235Z,99.90
2018-02-23T19:11:42.800Z,99.90
2018-02-23T19:14:10.120Z,99.90
2018-02-23T19:16:37.338Z,99.90
2018-02-23T19:19:04.134Z,99.90
2018-02-23T19:21:31.574Z,99.90
2018-02-23T19:23:59.384Z,99.90
2018-02-23T19:26:26.104Z,99.90
2018-02-23T19:28:52.839Z,99.90
2018-02-23T19:31:20.295Z,99.90
2018-02-23T19:33:47.856Z,99.90
2018-02-23T19:36:14.306Z,99.90
2018-02-23T19:38:40.689Z,99.90
2018-02-23T19:41:07.446Z,99.90
2018-02-23T19:43:34.574Z,99.90
2018-02-23T19:46:02.558Z,99.90
2018-02-23T19:53:26.604Z,99.90
2018-02-23T19:55:53.162Z,99.90
2018-02-23T19:58:19.978Z,99.90
2018-02-23T20:00:47.121Z,99.90
2018-02-23T20:03:13.862Z,99.90
2018-02-23T20:05:40.355Z,99.90
2018-02-23T20:08:07.276Z,99.90
2018-02-23T20:10:33.828Z,99.90
2018-02-23T20:13:00.580Z,99.90
2018-02-23T20:15:26.979Z,99.90
2018-02-23T20:17:53.902Z,99.90
2018-02-23T20:20:20.402Z,99.90
2018-02-23T20:22:46.936Z,99.90
2018-02-23T20:25:13.414Z,99.90
2018-02-23T20:27:39.989Z,99.90
2018-02-23T20:30:07.091Z,99.90
2018-02-23T20:32:33.854Z,99.90
2018-02-23T20:35:00.347Z,99.90
2018-02-23T20:37:26.973Z,99.90
2018-02-23T20:39:54.168Z,99.90
2018-02-23T20:42:21.489Z,99.90
2018-02-23T20:44:48.754Z,99.90
2018-02-23T20:47:15.402Z,99.90
2018-02-23T20:49:41.883Z,99.90
2018-02-23T20:52:09.504Z,99.90
2018-02-23T20:54:36.427Z,99.90
2018-02-23T20:57:02.866Z,99.90
2018-02-23T20:59:29.350Z,99.90
2018-02-23T21:01:56.931Z,99.90
2018-02-23T21:04:25.327Z,99.90
2018-02-23T21:06:51.717Z,99.90
2018-02-23T21:09:18.240Z,99.90
2018-02-23T21:11:44.819Z,99.90
2018-02-23T21:14:11.701Z,99.90
2018-02-23T21:19:06.179Z,99.90
2018-02-23T21:27:14.628Z,99.90
2018-02-23T21:29:41.101Z,99.90
2018-02-23T21:32:07.593Z,99.90
2018-02-23T21:34:33.984Z,99.90
2018-02-23T21:37:01.608Z,99.90
2018-02-23T21:39:29.684Z,99.90
2018-02-23T21:41:56.426Z,99.90
2018-02-23T21:44:24.966Z,99.90
2018-02-23T21:46:52.595Z,99.90
2018-02-23T21:49:19.323Z,99.90
2018-02-23T21:51:45.798Z,99.90
2018-02-23T21:54:12.333Z,99.90
2018-02-23T21:56:38.881Z,99.90
2018-02-23T21:59:05.708Z,99.90
2018-02-23T22:01:32.531Z,99.90
2018-02-23T22:03:59.744Z,99.90
2018-02-23T22:06:26.422Z,99.90
2018-02-23T22:08:52.850Z,99.90
2018-02-23T22:11:20.194Z,99.90
2018-02-23T22:13:46.647Z,99.90
2018-02-23T22:16:14.534Z,99.90
2018-02-23T22:18:42.043Z,99.90
2018-02-23T22:21:08.664Z,99.90
2018-02-23T22:23:35.073Z,99.90
2018-02-23T22:26:01.905Z,99.90
2018-02-23T22:28:28.783Z,99.90
2018-02-23T22:30:55.363Z,99.90
2018-02-23T22:33:21.788Z,99.90
2018-02-23T22:35:48.237Z,99.90
2018-02-23T22:38:14.810Z,99.90
2018-02-23T22:40:41.233Z,99.90
2018-02-23T22:43:07.609Z,99.90
2018-02-23T22:45:35.213Z,99.90
2018-02-23T22:48:02.130Z,99.90
2018-02-23T22:50:29.816Z,99.90
2018-02-23T22:52:56.226Z,99.90
2018-02-23T22:55:23.337Z,99.90
2018-02-23T22:57:50.831Z,99.90
2018-02-23T23:00:17.266Z,99.90
2018-02-23T23:02:43.708Z,99.90
2018-02-23T23:05:10.301Z,99.90
2018-02-23T23:07:37.673Z,99.90
2018-02-23T23:10:05.129Z,99.90
2018-02-23T23:12:32.282Z,99.90
2018-02-23T23:14:59.528Z,99.90
2018-02-23T23:17:26.276Z,99.90
2018-02-23T23:19:53.514Z,99.90
2018-02-23T23:22:19.885Z,99.90
2018-02-23T23:24:46.337Z,99.90
2018-02-23T23:27:12.744Z,99.90
2018-02-23T23:29:41.059Z,99.90
2018-02-23T23:32:08.303Z,99.90
2018-02-23T23:34:34.705Z,99.90
2018-02-23T23:37:01.601Z,99.90
2018-02-23T23:39:30.402Z,99.90
2018-02-23T23:41:57.101Z,99.90
2018-02-23T23:44:24.206Z,99.90
2018-02-23T23:46:50.840Z,99.90
2018-02-23T23:49:17.436Z,99.90
2018-02-23T23:51:43.962Z,99.90
2018-02-23T23:54:11.119Z,99.90
2018-02-23T23:56:38.317Z,99.90
2018-02-23T23:59:04.707Z,99.90
